createdAt,value
2023-03-21T00:01:37.683Z,100432.00
2023-03-21T00:06:34.051Z,100431.06
2023-03-21T00:11:30.462Z,100416.00
2023-03-21T00:16:29.217Z,100418.88
2023-03-21T00:22:05.538Z,100403.72
2023-03-21T00:26:49.586Z,100406.91
2023-03-21T00:31:46.112Z,100402.13
2023-03-21T00:36:42.951Z,100401.94
2023-03-21T00:41:42.773Z,100409.75
2023-03-21T00:46:49.077Z,100402.56
2023-03-21T00:51:51.332Z,100398.72
2023-03-21T00:56:47.855Z,100393.75
2023-03-21T01:01:46.622Z,100384.41
2023-03-21T01:06:44.034Z,100380.78
2023-03-21T01:11:41.794Z,100378.38
2023-03-21T01:16:38.684Z,100374.78
2023-03-21T01:21:35.690Z,100372.22
2023-03-21T01:26:32.100Z,100370.97
2023-03-21T01:31:28.583Z,100370.75
2023-03-21T01:36:26.709Z,100369.56
2023-03-21T01:41:47.258Z,100369.97
2023-03-21T01:47:07.309Z,100368.63
2023-03-21T01:52:15.155Z,100361.63
2023-03-21T01:57:17.790Z,100363.50
2023-03-21T02:02:20.830Z,100354.28
2023-03-21T02:07:25.610Z,100353.34
2023-03-21T02:12:22.362Z,100341.34
2023-03-21T02:17:29.773Z,100345.47
2023-03-21T02:22:48.119Z,100328.63
2023-03-21T02:28:01.844Z,100331.50
2023-03-21T02:33:16.399Z,100331.28
2023-03-21T02:38:21.522Z,100314.75
2023-03-21T02:43:30.185Z,100323.41
2023-03-21T02:48:48.240Z,100319.19
2023-03-21T02:54:13.001Z,100314.34
2023-03-21T02:59:10.724Z,100318.13
2023-03-21T03:04:24.456Z,100324.72
2023-03-21T03:09:27.288Z,100329.06
2023-03-21T03:14:52.741Z,100316.53
2023-03-21T03:20:15.649Z,100306.78
2023-03-21T03:25:32.392Z,100303.34
2023-03-21T03:30:44.682Z,100304.75
2023-03-21T03:35:55.762Z,100304.38
2023-03-21T03:41:03.984Z,100300.69
2023-03-21T03:46:10.529Z,100301.31
2023-03-21T03:51:12.570Z,100291.66
2023-03-21T03:56:11.584Z,100288.03
2023-03-21T04:01:08.384Z,100284.94
2023-03-21T04:06:05.174Z,100276.69
2023-03-21T04:11:02.757Z,100279.72
2023-03-21T04:15:59.478Z,100278.47
2023-03-21T04:20:56.385Z,100270.94
2023-03-21T04:25:56.639Z,100275.81
2023-03-21T04:31:02.497Z,100270.50
2023-03-21T04:36:03.285Z,100262.34
2023-03-21T04:41:00.700Z,100263.81
2023-03-21T04:45:57.313Z,100259.97
2023-03-21T04:50:53.774Z,100252.59
2023-03-21T04:55:54.149Z,100253.31
2023-03-21T05:00:53.255Z,100249.97
2023-03-21T05:05:50.055Z,100245.38
2023-03-21T05:10:46.655Z,100247.00
2023-03-21T05:15:43.105Z,100250.81
2023-03-21T05:20:44.392Z,100245.69
2023-03-21T05:25:40.814Z,100239.78
2023-03-21T05:30:37.522Z,100245.09
2023-03-21T05:35:34.183Z,100246.13
2023-03-21T05:40:30.984Z,100236.97
2023-03-21T05:45:27.542Z,100240.91
2023-03-21T05:50:23.900Z,100247.06
2023-03-21T05:55:20.617Z,100250.75
2023-03-21T06:00:18.073Z,100244.50
2023-03-21T06:05:14.950Z,100234.50
2023-03-21T06:10:11.706Z,100241.91
2023-03-21T06:15:09.061Z,100244.72
2023-03-21T06:20:07.259Z,100238.34
2023-03-21T06:25:07.415Z,100234.72
2023-03-21T06:30:05.821Z,100236.44
2023-03-21T06:35:02.277Z,100239.38
2023-03-21T06:39:58.659Z,100235.28
2023-03-21T06:44:55.437Z,100248.31
2023-03-21T06:49:51.914Z,100242.19
2023-03-21T06:54:48.319Z,100243.19
2023-03-21T06:59:44.715Z,100247.41
2023-03-21T07:04:41.315Z,100247.78
2023-03-21T07:09:37.985Z,100241.41
2023-03-21T07:14:34.977Z,100250.09
2023-03-21T07:19:31.433Z,100244.94
2023-03-21T07:24:27.799Z,100248.91
2023-03-21T07:29:25.404Z,100249.75
2023-03-21T07:34:21.821Z,100246.88
2023-03-21T07:39:20.533Z,100245.94
2023-03-21T07:44:17.178Z,100238.31
2023-03-21T07:49:13.632Z,100249.66
2023-03-21T07:54:10.021Z,100246.13
2023-03-21T07:59:07.400Z,100250.59
2023-03-21T08:04:03.812Z,100261.47
2023-03-21T08:09:00.397Z,100260.03
2023-03-21T08:14:01.362Z,100262.84
2023-03-21T08:18:57.821Z,100266.44
2023-03-21T08:23:54.288Z,100262.88
2023-03-21T08:28:50.770Z,100265.34
2023-03-21T08:33:47.453Z,100267.16
2023-03-21T08:38:45.973Z,100267.06
2023-03-21T08:43:42.352Z,100269.81
2023-03-21T08:48:39.354Z,100281.91
2023-03-21T08:53:35.936Z,100273.66
2023-03-21T08:58:32.323Z,100277.28
2023-03-21T09:03:30.318Z,100277.00
2023-03-21T09:08:27.046Z,100278.59
2023-03-21T09:13:24.200Z,100276.78
2023-03-21T09:18:38.591Z,100273.28
2023-03-21T09:23:35.556Z,100275.72
2023-03-21T09:28:33.150Z,100281.97
2023-03-21T09:33:30.337Z,100282.00
2023-03-21T09:38:37.575Z,100287.75
2023-03-21T09:43:51.375Z,100276.78
2023-03-21T09:49:01.508Z,100270.41
2023-03-21T09:54:02.200Z,100265.56
2023-03-21T09:59:01.318Z,100272.44
2023-03-21T10:04:01.093Z,100267.97
2023-03-21T10:09:06.521Z,100277.25
2023-03-21T10:14:38.210Z,100269.44
2023-03-21T10:19:34.570Z,100266.56
2023-03-21T10:24:33.997Z,100249.56
2023-03-21T10:29:44.408Z,100248.09
2023-03-21T10:34:45.914Z,100249.19
2023-03-21T10:39:53.120Z,100244.13
2023-03-21T10:44:51.679Z,100238.28
2023-03-21T10:55:18.599Z,100237.88
2023-03-21T11:00:22.965Z,100232.19
2023-03-21T11:05:22.877Z,100225.84
2023-03-21T11:10:30.563Z,100228.38
2023-03-21T11:15:52.565Z,100224.91
2023-03-21T11:20:54.646Z,100225.88
2023-03-21T11:25:51.612Z,100217.03
2023-03-21T11:30:54.545Z,100216.53
2023-03-21T11:36:26.128Z,100201.75
2023-03-21T11:41:29.510Z,100200.78
2023-03-21T11:46:29.102Z,100194.22
2023-03-21T11:52:07.359Z,100193.78
2023-03-21T11:57:29.630Z,100187.75
2023-03-21T12:02:33.531Z,100181.97
2023-03-21T12:07:54.233Z,100174.22
2023-03-21T12:13:03.358Z,100171.94
2023-03-21T12:18:24.391Z,100162.94
2023-03-21T12:23:54.208Z,100153.16
2023-03-21T12:29:05.539Z,100146.56
2023-03-21T12:34:26.807Z,100144.16
2023-03-21T12:39:29.603Z,100135.13
2023-03-21T12:44:32.801Z,100128.28
2023-03-21T12:49:39.940Z,100130.56
2023-03-21T12:54:51.997Z,100120.41
2023-03-21T13:00:20.082Z,100119.47
2023-03-21T13:05:40.441Z,100118.63
2023-03-21T13:10:37.176Z,100112.41
2023-03-21T13:15:48.101Z,100107.31
2023-03-21T13:20:49.997Z,100100.47
2023-03-21T13:25:49.426Z,100088.31
2023-03-21T13:30:47.122Z,100086.28
2023-03-21T13:35:45.795Z,100078.56
2023-03-21T13:40:49.283Z,100067.19
2023-03-21T13:45:52.801Z,100059.75
2023-03-21T13:51:00.725Z,100059.53
2023-03-21T13:56:19.518Z,100052.75
2023-03-21T14:01:16.614Z,100032.94
2023-03-21T14:06:14.562Z,100018.91
2023-03-21T14:11:19.119Z,100012.22
2023-03-21T14:16:17.672Z,100007.56
2023-03-21T14:21:24.054Z,99998.75
2023-03-21T14:26:20.991Z,99991.16
2023-03-21T14:31:19.439Z,99991.13
2023-03-21T14:36:24.382Z,99990.84
2023-03-21T14:41:26.648Z,99992.25
2023-03-21T14:46:23.041Z,99994.78
2023-03-21T14:51:19.639Z,99993.88
2023-03-21T14:56:25.103Z,99974.97
2023-03-21T15:01:31.101Z,99971.97
2023-03-21T15:06:27.509Z,99942.13
2023-03-21T15:11:39.576Z,99956.28
2023-03-21T15:16:36.795Z,99930.22
2023-03-21T15:21:42.201Z,99950.13
2023-03-21T15:26:39.109Z,99950.53
2023-03-21T15:31:39.247Z,99939.44
2023-03-21T15:36:43.283Z,99925.41
2023-03-21T15:41:39.895Z,99935.09
2023-03-21T15:46:48.373Z,99950.31
2023-03-21T15:52:17.197Z,99945.13
2023-03-21T15:57:22.627Z,99936.00
2023-03-21T16:02:24.636Z,99937.81
2023-03-21T16:07:24.318Z,99931.66
2023-03-21T16:12:20.672Z,99921.81
2023-03-21T16:17:30.095Z,99913.59
2023-03-21T16:22:28.261Z,99918.25
2023-03-21T16:27:24.638Z,99918.59
2023-03-21T16:32:20.945Z,99930.06
2023-03-21T16:37:17.336Z,99918.41
2023-03-21T16:42:13.936Z,99920.84
2023-03-21T16:47:18.966Z,99903.53
2023-03-21T16:52:15.532Z,99904.88
2023-03-21T16:57:22.887Z,99926.25
2023-03-21T17:02:19.283Z,99922.97
2023-03-21T17:07:15.793Z,99925.31
2023-03-21T17:12:15.209Z,99932.38
2023-03-21T17:17:13.246Z,99925.97
2023-03-21T17:22:11.398Z,99931.38
2023-03-21T17:27:13.996Z,99928.66
2023-03-21T17:32:10.341Z,99922.25
2023-03-21T17:37:09.474Z,99922.38
2023-03-21T17:42:15.629Z,99923.56
2023-03-21T17:47:12.330Z,99923.06
2023-03-21T17:52:09.124Z,99936.69
2023-03-21T17:57:05.491Z,99944.38
2023-03-21T18:02:02.075Z,99949.75
2023-03-21T18:07:01.104Z,99959.44
2023-03-21T18:11:57.707Z,99957.22
2023-03-21T18:16:54.286Z,99947.56
2023-03-21T18:21:51.296Z,99949.25
2023-03-21T18:26:47.822Z,99952.38
2023-03-21T18:31:54.389Z,99949.13
2023-03-21T18:36:59.065Z,99945.81
2023-03-21T18:41:59.703Z,99951.03
2023-03-21T18:46:57.630Z,99952.75
2023-03-21T18:51:54.074Z,99952.41
2023-03-21T18:57:34.675Z,99953.13
2023-03-21T19:02:08.036Z,99951.66
2023-03-21T19:07:05.012Z,99945.81
2023-03-21T19:12:01.960Z,99947.25
2023-03-21T19:17:50.852Z,99939.19
2023-03-21T19:22:16.102Z,99932.78
2023-03-21T19:27:13.206Z,99923.69
2023-03-21T19:32:09.637Z,99932.06
2023-03-21T19:37:06.209Z,99929.47
2023-03-21T19:42:15.538Z,99927.72
2023-03-21T19:47:13.350Z,99915.31
2023-03-21T19:52:09.996Z,99927.28
2023-03-21T19:57:07.376Z,99922.81
2023-03-21T20:02:25.565Z,99915.47
2023-03-21T20:07:20.266Z,99915.41
2023-03-21T20:12:16.995Z,99927.50
2023-03-21T20:17:13.513Z,99930.28
2023-03-21T20:22:21.772Z,99921.88
2023-03-21T20:27:25.131Z,99923.78
2023-03-21T20:32:21.591Z,99910.84
2023-03-21T20:37:18.250Z,99912.28
2023-03-21T20:42:14.805Z,99914.50
2023-03-21T20:47:11.134Z,99927.19
2023-03-21T20:52:54.415Z,99915.00
2023-03-21T20:57:27.214Z,99919.97
2023-03-21T21:02:24.675Z,99901.84
2023-03-21T21:07:22.441Z,99910.28
2023-03-21T21:12:19.267Z,99910.50
2023-03-21T21:17:31.075Z,99895.69
2023-03-21T21:22:32.519Z,99896.38
2023-03-21T21:27:29.300Z,99890.97
2023-03-21T21:32:25.678Z,99886.94
2023-03-21T21:37:22.691Z,99872.72
2023-03-21T21:42:19.073Z,99868.66
2023-03-21T21:47:15.456Z,99867.94
2023-03-21T21:52:13.326Z,99877.63
2023-03-21T21:57:09.920Z,99878.75
2023-03-21T22:02:06.792Z,99872.91
2023-03-21T22:07:05.927Z,99886.31
2023-03-21T22:12:02.409Z,99862.41
2023-03-21T22:16:59.940Z,99871.28
2023-03-21T22:21:58.146Z,99862.59
2023-03-21T22:27:00.429Z,99856.34
2023-03-21T22:31:57.059Z,99856.25
2023-03-21T22:36:55.726Z,99859.28
2023-03-21T22:41:54.280Z,99856.03
2023-03-21T22:46:50.609Z,99858.19
2023-03-21T22:51:46.941Z,99855.16
2023-03-21T22:56:43.642Z,99855.91
2023-03-21T23:01:40.246Z,99845.97
2023-03-21T23:06:36.685Z,99847.94
2023-03-21T23:11:33.001Z,99850.09
2023-03-21T23:16:29.388Z,99844.81
2023-03-21T23:21:25.811Z,99835.13
2023-03-21T23:26:23.550Z,99837.09
2023-03-21T23:31:23.534Z,99822.59
2023-03-21T23:36:20.880Z,99823.56
2023-03-21T23:41:19.858Z,99822.81
2023-03-21T23:46:17.253Z,99825.00
2023-03-21T23:51:16.281Z,99815.84
2023-03-21T23:56:18.882Z,99807.38
